sensor_id;sensor_type;location;lat;lon;timestamp;temperature;humidity
16327;DHT22;34812;49.846;9.610;2022-09-14T00:00:14;16.50;99.90
16327;DHT22;34812;49.846;9.610;2022-09-14T00:01:17;16.60;99.90
16327;DHT22;34812;49.846;9.610;2022-09-14T00:02:19;16.50;99.90
16327;DHT22;34812;49.846;9.610;2022-09-14T00:03:19;16.50;99.90
16327;DHT22;34812;49.846;9.610;2022-09-14T00:04:21;16.50;99.90
16327;DHT22;34812;49.846;9.610;2022-09-14T00:05:22;16.50;99.90
16327;DHT22;34812;49.846;9.610;2022-09-14T00:06:24;16.50;99.90
16327;DHT22;34812;49.846;9.610;2022-09-14T00:07:25;16.50;99.90
16327;DHT22;34812;49.846;9.610;2022-09-14T00:08:27;16.50;99.90
16327;DHT22;34812;49.846;9.610;2022-09-14T00:09:27;16.50;99.90
16327;DHT22;34812;49.846;9.610;2022-09-14T00:10:29;16.50;99.90
16327;DHT22;34812;49.846;9.610;2022-09-14T00:11:32;16.50;99.90
16327;DHT22;34812;49.846;9.610;2022-09-14T00:12:34;16.40;99.90
16327;DHT22;34812;49.846;9.610;2022-09-14T00:13:36;16.50;99.90
16327;DHT22;34812;49.846;9.610;2022-09-14T00:14:40;16.40;99.90
16327;DHT22;34812;49.846;9.610;2022-09-14T00:15:42;16.40;99.90
16327;DHT22;34812;49.846;9.610;2022-09-14T00:16:44;16.40;99.90
16327;DHT22;34812;49.846;9.610;2022-09-14T00:17:46;16.40;99.90
16327;DHT22;34812;49.846;9.610;2022-09-14T00:18:50;16.40;99.90
16327;DHT22;34812;49.846;9.610;2022-09-14T00:19:52;16.50;99.90
16327;DHT22;34812;49.846;9.610;2022-09-14T00:20:58;16.40;99.90
16327;DHT22;34812;49.846;9.610;2022-09-14T00:22:00;16.40;99.90
16327;DHT22;34812;49.846;9.610;2022-09-14T00:23:01;16.40;99.90
16327;DHT22;34812;49.846;9.610;2022-09-14T00:24:03;16.40;99.90
16327;DHT22;34812;49.846;9.610;2022-09-14T00:25:05;16.40;99.90
16327;DHT22;34812;49.846;9.610;2022-09-14T00:26:10;16.40;99.90
16327;DHT22;34812;49.846;9.610;2022-09-14T00:27:11;16.40;99.90
16327;DHT22;34812;49.846;9.610;2022-09-14T00:28:13;16.40;99.90
16327;DHT22;34812;49.846;9.610;2022-09-14T00:29:13;16.40;99.90
16327;DHT22;34812;49.846;9.610;2022-09-14T00:30:17;16.40;99.90
16327;DHT22;34812;49.846;9.610;2022-09-14T00:31:18;16.40;99.90
16327;DHT22;34812;49.846;9.610;2022-09-14T00:32:20;16.40;99.90
16327;DHT22;34812;49.846;9.610;2022-09-14T00:33:21;16.40;99.90
16327;DHT22;34812;49.846;9.610;2022-09-14T00:34:23;16.40;99.90
16327;DHT22;34812;49.846;9.610;2022-09-14T00:35:23;16.40;99.90
16327;DHT22;34812;49.846;9.610;2022-09-14T00:36:27;16.40;99.90
16327;DHT22;34812;49.846;9.610;2022-09-14T00:37:28;16.40;99.90
16327;DHT22;34812;49.846;9.610;2022-09-14T00:38:29;16.40;99.90
16327;DHT22;34812;49.846;9.610;2022-09-14T00:39:30;16.40;99.90
16327;DHT22;34812;49.846;9.610;2022-09-14T00:40:32;16.40;99.90
16327;DHT22;34812;49.846;9.610;2022-09-14T00:41:35;16.40;99.90
16327;DHT22;34812;49.846;9.610;2022-09-14T00:42:38;16.40;99.90
16327;DHT22;34812;49.846;9.610;2022-09-14T00:43:55;16.40;99.90
16327;DHT22;34812;49.846;9.610;2022-09-14T00:45:01;16.40;99.90
16327;DHT22;34812;49.846;9.610;2022-09-14T00:46:03;16.40;99.90
16327;DHT22;34812;49.846;9.610;2022-09-14T00:47:05;16.40;99.90
16327;DHT22;34812;49.846;9.610;2022-09-14T00:48:06;16.40;99.90
16327;DHT22;34812;49.846;9.610;2022-09-14T00:49:10;16.40;99.90
16327;DHT22;34812;49.846;9.610;2022-09-14T00:50:13;16.40;99.90
16327;DHT22;34812;49.846;9.610;2022-09-14T00:51:16;16.40;99.90
16327;DHT22;34812;49.846;9.610;2022-09-14T00:52:20;16.40;99.90
16327;DHT22;34812;49.846;9.610;2022-09-14T00:53:22;16.30;99.90
16327;DHT22;34812;49.846;9.610;2022-09-14T00:54:25;16.40;99.90
16327;DHT22;34812;49.846;9.610;2022-09-14T00:55:26;16.40;99.90
16327;DHT22;34812;49.846;9.610;2022-09-14T00:56:28;16.30;99.90
16327;DHT22;34812;49.846;9.610;2022-09-14T00:57:34;16.30;99.90
16327;DHT22;34812;49.846;9.610;2022-09-14T00:58:37;16.30;99.90
16327;DHT22;34812;49.846;9.610;2022-09-14T00:59:40;16.30;99.90
16327;DHT22;34812;49.846;9.610;2022-09-14T01:00:42;16.30;99.90
16327;DHT22;34812;49.846;9.610;2022-09-14T01:01:44;16.30;99.90
16327;DHT22;34812;49.846;9.610;2022-09-14T01:02:46;16.30;99.90
16327;DHT22;34812;49.846;9.610;2022-09-14T01:03:47;16.20;99.90
16327;DHT22;34812;49.846;9.610;2022-09-14T01:04:49;16.20;99.90
16327;DHT22;34812;49.846;9.610;2022-09-14T01:05:57;16.20;99.90
16327;DHT22;34812;49.846;9.610;2022-09-14T01:07:11;16.20;99.90
16327;DHT22;34812;49.846;9.610;2022-09-14T01:08:28;16.20;99.90
16327;DHT22;34812;49.846;9.610;2022-09-14T01:09:38;16.20;99.90
16327;DHT22;34812;49.846;9.610;2022-09-14T01:10:57;16.30;99.90
16327;DHT22;34812;49.846;9.610;2022-09-14T01:12:11;16.30;99.90
16327;DHT22;34812;49.846;9.610;2022-09-14T01:13:23;16.30;99.90
16327;DHT22;34812;49.846;9.610;2022-09-14T01:14:33;16.30;99.90
16327;DHT22;34812;49.846;9.610;2022-09-14T01:15:48;16.30;99.90
16327;DHT22;34812;49.846;9.610;2022-09-14T01:17:01;16.30;99.90
16327;DHT22;34812;49.846;9.610;2022-09-14T01:18:09;16.30;99.90
16327;DHT22;34812;49.846;9.610;2022-09-14T01:19:23;16.30;99.90
16327;DHT22;34812;49.846;9.610;2022-09-14T01:20:27;16.30;99.90
16327;DHT22;34812;49.846;9.610;2022-09-14T01:21:32;16.30;99.90
16327;DHT22;34812;49.846;9.610;2022-09-14T01:22:38;16.30;99.90
16327;DHT22;34812;49.846;9.610;2022-09-14T01:23:48;16.30;99.90
16327;DHT22;34812;49.846;9.610;2022-09-14T01:24:54;16.30;99.90
16327;DHT22;34812;49.846;9.610;2022-09-14T01:26:20;16.30;99.90
16327;DHT22;34812;49.846;9.610;2022-09-14T01:27:30;16.30;99.90
16327;DHT22;34812;49.846;9.610;2022-09-14T01:28:39;16.30;99.90
16327;DHT22;34812;49.846;9.610;2022-09-14T01:29:43;16.30;99.90
16327;DHT22;34812;49.846;9.610;2022-09-14T01:30:50;16.30;99.90
16327;DHT22;34812;49.846;9.610;2022-09-14T01:31:55;16.30;99.90
16327;DHT22;34812;49.846;9.610;2022-09-14T01:33:06;16.20;99.90
16327;DHT22;34812;49.846;9.610;2022-09-14T01:34:11;16.20;99.90
16327;DHT22;34812;49.846;9.610;2022-09-14T01:35:19;16.20;99.90
16327;DHT22;34812;49.846;9.610;2022-09-14T01:36:25;16.20;99.90
16327;DHT22;34812;49.846;9.610;2022-09-14T01:37:32;16.20;99.90
16327;DHT22;34812;49.846;9.610;2022-09-14T01:38:37;16.20;99.90
16327;DHT22;34812;49.846;9.610;2022-09-14T01:39:42;16.20;99.90
16327;DHT22;34812;49.846;9.610;2022-09-14T01:40:46;16.20;99.90
16327;DHT22;34812;49.846;9.610;2022-09-14T01:41:49;16.20;99.90
16327;DHT22;34812;49.846;9.610;2022-09-14T01:42:57;16.20;99.90
16327;DHT22;34812;49.846;9.610;2022-09-14T01:44:00;16.20;99.90
16327;DHT22;34812;49.846;9.610;2022-09-14T01:45:08;16.10;99.90
16327;DHT22;34812;49.846;9.610;2022-09-14T01:46:12;16.10;99.90
16327;DHT22;34812;49.846;9.610;2022-09-14T01:47:17;16.10;99.90
16327;DHT22;34812;49.846;9.610;2022-09-14T01:48:23;16.10;99.90
16327;DHT22;34812;49.846;9.610;2022-09-14T01:49:29;16.10;99.90
16327;DHT22;34812;49.846;9.610;2022-09-14T01:50:37;16.10;99.90
16327;DHT22;34812;49.846;9.610;2022-09-14T01:51:44;16.10;99.90
16327;DHT22;34812;49.846;9.610;2022-09-14T01:52:47;16.10;99.90
16327;DHT22;34812;49.846;9.610;2022-09-14T01:53:53;16.10;99.90
16327;DHT22;34812;49.846;9.610;2022-09-14T01:54:59;16.10;99.90
16327;DHT22;34812;49.846;9.610;2022-09-14T01:56:04;16.10;99.90
16327;DHT22;34812;49.846;9.610;2022-09-14T01:57:10;16.10;99.90
16327;DHT22;34812;49.846;9.610;2022-09-14T01:58:19;16.00;99.90
16327;DHT22;34812;49.846;9.610;2022-09-14T01:59:23;16.00;99.90
16327;DHT22;34812;49.846;9.610;2022-09-14T02:00:26;16.00;99.90
16327;DHT22;34812;49.846;9.610;2022-09-14T02:01:30;16.00;99.90
16327;DHT22;34812;49.846;9.610;2022-09-14T02:02:38;16.00;99.90
16327;DHT22;34812;49.846;9.610;2022-09-14T02:03:42;16.00;99.90
16327;DHT22;34812;49.846;9.610;2022-09-14T02:04:50;16.00;99.90
16327;DHT22;34812;49.846;9.610;2022-09-14T02:05:56;16.00;99.90
16327;DHT22;34812;49.846;9.610;2022-09-14T02:07:00;16.00;99.90
16327;DHT22;34812;49.846;9.610;2022-09-14T02:08:01;16.00;99.90
16327;DHT22;34812;49.846;9.610;2022-09-14T02:09:06;16.00;99.90
16327;DHT22;34812;49.846;9.610;2022-09-14T02:10:09;16.00;99.90
16327;DHT22;34812;49.846;9.610;2022-09-14T02:11:12;15.90;99.90
16327;DHT22;34812;49.846;9.610;2022-09-14T02:12:13;15.90;99.90
16327;DHT22;34812;49.846;9.610;2022-09-14T02:13:16;15.90;99.90
16327;DHT22;34812;49.846;9.610;2022-09-14T02:14:17;15.90;99.90
16327;DHT22;34812;49.846;9.610;2022-09-14T02:15:19;15.90;99.90
16327;DHT22;34812;49.846;9.610;2022-09-14T02:16:21;15.90;99.90
16327;DHT22;34812;49.846;9.610;2022-09-14T02:17:23;16.00;99.90
16327;DHT22;34812;49.846;9.610;2022-09-14T02:18:24;16.00;99.90
16327;DHT22;34812;49.846;9.610;2022-09-14T02:19:31;15.90;99.90
16327;DHT22;34812;49.846;9.610;2022-09-14T02:20:38;15.90;99.90
16327;DHT22;34812;49.846;9.610;2022-09-14T02:21:41;15.90;99.90
16327;DHT22;34812;49.846;9.610;2022-09-14T02:22:42;15.90;99.90
16327;DHT22;34812;49.846;9.610;2022-09-14T02:23:45;15.90;99.90
16327;DHT22;34812;49.846;9.610;2022-09-14T02:24:46;15.90;99.90
16327;DHT22;34812;49.846;9.610;2022-09-14T02:25:48;16.00;99.90
16327;DHT22;34812;49.846;9.610;2022-09-14T02:26:51;15.90;99.90
16327;DHT22;34812;49.846;9.610;2022-09-14T02:27:54;15.90;99.90
16327;DHT22;34812;49.846;9.610;2022-09-14T02:28:56;15.90;99.90
16327;DHT22;34812;49.846;9.610;2022-09-14T02:29:58;15.90;99.90
16327;DHT22;34812;49.846;9.610;2022-09-14T02:31:07;15.90;99.90
16327;DHT22;34812;49.846;9.610;2022-09-14T02:32:20;16.00;99.90
16327;DHT22;34812;49.846;9.610;2022-09-14T02:33:28;16.00;99.90
16327;DHT22;34812;49.846;9.610;2022-09-14T02:34:36;16.00;99.90
16327;DHT22;34812;49.846;9.610;2022-09-14T02:35:43;16.00;99.90
16327;DHT22;34812;49.846;9.610;2022-09-14T02:36:47;16.00;99.90
16327;DHT22;34812;49.846;9.610;2022-09-14T02:37:56;16.00;99.90
16327;DHT22;34812;49.846;9.610;2022-09-14T02:39:02;16.00;99.90
16327;DHT22;34812;49.846;9.610;2022-09-14T02:40:13;16.00;99.90
16327;DHT22;34812;49.846;9.610;2022-09-14T02:41:24;16.00;99.90
16327;DHT22;34812;49.846;9.610;2022-09-14T02:42:33;16.00;99.90
16327;DHT22;34812;49.846;9.610;2022-09-14T02:43:40;16.00;99.90
16327;DHT22;34812;49.846;9.610;2022-09-14T02:44:55;16.00;99.90
16327;DHT22;34812;49.846;9.610;2022-09-14T02:46:04;16.00;99.90
16327;DHT22;34812;49.846;9.610;2022-09-14T02:47:13;16.00;99.90
16327;DHT22;34812;49.846;9.610;2022-09-14T02:48:20;16.00;99.90
16327;DHT22;34812;49.846;9.610;2022-09-14T02:49:26;16.00;99.90
16327;DHT22;34812;49.846;9.610;2022-09-14T02:50:34;16.00;99.90
16327;DHT22;34812;49.846;9.610;2022-09-14T02:51:42;16.00;99.90
16327;DHT22;34812;49.846;9.610;2022-09-14T02:52:51;16.00;99.90
16327;DHT22;34812;49.846;9.610;2022-09-14T02:53:59;16.00;99.90
16327;DHT22;34812;49.846;9.610;2022-09-14T02:55:05;16.00;99.90
16327;DHT22;34812;49.846;9.610;2022-09-14T02:56:09;16.00;99.90
16327;DHT22;34812;49.846;9.610;2022-09-14T02:57:10;16.00;99.90
16327;DHT22;34812;49.846;9.610;2022-09-14T02:58:13;16.00;99.90
16327;DHT22;34812;49.846;9.610;2022-09-14T02:59:14;16.00;99.90
16327;DHT22;34812;49.846;9.610;2022-09-14T03:00:17;16.00;99.90
16327;DHT22;34812;49.846;9.610;2022-09-14T03:01:21;16.00;99.90
16327;DHT22;34812;49.846;9.610;2022-09-14T03:02:23;16.00;99.90
16327;DHT22;34812;49.846;9.610;2022-09-14T03:03:24;16.00;99.90
16327;DHT22;34812;49.846;9.610;2022-09-14T03:04:25;15.90;99.90
16327;DHT22;34812;49.846;9.610;2022-09-14T03:05:26;16.00;99.90
16327;DHT22;34812;49.846;9.610;2022-09-14T03:06:28;16.00;99.90
16327;DHT22;34812;49.846;9.610;2022-09-14T03:07:29;16.00;99.90
16327;DHT22;34812;49.846;9.610;2022-09-14T03:08:31;16.00;99.90
16327;DHT22;34812;49.846;9.610;2022-09-14T03:09:32;16.00;99.90
16327;DHT22;34812;49.846;9.610;2022-09-14T03:10:33;16.00;99.90
16327;DHT22;34812;49.846;9.610;2022-09-14T03:11:34;16.00;99.90
16327;DHT22;34812;49.846;9.610;2022-09-14T03:12:36;16.00;99.90
16327;DHT22;34812;49.846;9.610;2022-09-14T03:13:37;16.00;99.90
16327;DHT22;34812;49.846;9.610;2022-09-14T03:14:39;16.00;99.90
16327;DHT22;34812;49.846;9.610;2022-09-14T03:15:41;16.00;99.90
16327;DHT22;34812;49.846;9.610;2022-09-14T03:16:43;16.00;99.90
16327;DHT22;34812;49.846;9.610;2022-09-14T03:17:44;16.00;99.90
16327;DHT22;34812;49.846;9.610;2022-09-14T03:18:46;16.00;99.90
16327;DHT22;34812;49.846;9.610;2022-09-14T03:19:47;16.00;99.90
16327;DHT22;34812;49.846;9.610;2022-09-14T03:20:49;16.00;99.90
16327;DHT22;34812;49.846;9.610;2022-09-14T03:21:50;16.00;99.90
16327;DHT22;34812;49.846;9.610;2022-09-14T03:22:51;16.10;99.90
16327;DHT22;34812;49.846;9.610;2022-09-14T03:23:53;16.10;99.90
16327;DHT22;34812;49.846;9.610;2022-09-14T03:24:56;16.10;99.90
16327;DHT22;34812;49.846;9.610;2022-09-14T03:25:57;16.10;99.90
16327;DHT22;34812;49.846;9.610;2022-09-14T03:26:58;16.10;99.90
16327;DHT22;34812;49.846;9.610;2022-09-14T03:27:59;16.00;99.90
16327;DHT22;34812;49.846;9.610;2022-09-14T03:29:01;16.10;99.90
16327;DHT22;34812;49.846;9.610;2022-09-14T03:30:03;16.10;99.90
16327;DHT22;34812;49.846;9.610;2022-09-14T03:31:08;16.00;99.90
16327;DHT22;34812;49.846;9.610;2022-09-14T03:32:09;16.10;99.90
16327;DHT22;34812;49.846;9.610;2022-09-14T03:33:12;16.10;99.90
16327;DHT22;34812;49.846;9.610;2022-09-14T03:34:14;16.00;99.90
16327;DHT22;34812;49.846;9.610;2022-09-14T03:35:17;16.10;99.90
16327;DHT22;34812;49.846;9.610;2022-09-14T03:36:19;16.10;99.90
16327;DHT22;34812;49.846;9.610;2022-09-14T03:37:20;16.10;99.90
16327;DHT22;34812;49.846;9.610;2022-09-14T03:38:21;16.10;99.90
16327;DHT22;34812;49.846;9.610;2022-09-14T03:39:23;16.10;99.90
16327;DHT22;34812;49.846;9.610;2022-09-14T03:40:25;16.10;99.90
16327;DHT22;34812;49.846;9.610;2022-09-14T03:41:27;16.10;99.90
16327;DHT22;34812;49.846;9.610;2022-09-14T03:42:28;16.10;99.90
16327;DHT22;34812;49.846;9.610;2022-09-14T03:43:29;16.10;99.90
16327;DHT22;34812;49.846;9.610;2022-09-14T03:44:30;16.10;99.90
16327;DHT22;34812;49.846;9.610;2022-09-14T03:45:31;16.10;99.90
16327;DHT22;34812;49.846;9.610;2022-09-14T03:46:34;16.00;99.90
16327;DHT22;34812;49.846;9.610;2022-09-14T03:47:35;16.10;99.90
16327;DHT22;34812;49.846;9.610;2022-09-14T03:48:37;16.00;99.90
16327;DHT22;34812;49.846;9.610;2022-09-14T03:49:38;16.00;99.90
16327;DHT22;34812;49.846;9.610;2022-09-14T03:50:40;16.00;99.90
16327;DHT22;34812;49.846;9.610;2022-09-14T03:51:40;16.00;99.90
16327;DHT22;34812;49.846;9.610;2022-09-14T03:52:42;16.00;99.90
16327;DHT22;34812;49.846;9.610;2022-09-14T03:53:43;16.00;99.90
16327;DHT22;34812;49.846;9.610;2022-09-14T03:54:45;16.00;99.90
16327;DHT22;34812;49.846;9.610;2022-09-14T03:55:46;16.00;99.90
16327;DHT22;34812;49.846;9.610;2022-09-14T03:56:49;16.00;99.90
16327;DHT22;34812;49.846;9.610;2022-09-14T03:57:53;15.90;99.90
16327;DHT22;34812;49.846;9.610;2022-09-14T03:58:55;16.00;99.90
16327;DHT22;34812;49.846;9.610;2022-09-14T03:59:56;16.00;99.90
16327;DHT22;34812;49.846;9.610;2022-09-14T04:01:03;15.90;99.90
16327;DHT22;34812;49.846;9.610;2022-09-14T04:02:05;16.00;99.90
16327;DHT22;34812;49.846;9.610;2022-09-14T04:03:06;16.00;99.90
16327;DHT22;34812;49.846;9.610;2022-09-14T04:04:07;16.00;99.90
16327;DHT22;34812;49.846;9.610;2022-09-14T04:05:09;15.90;99.90
16327;DHT22;34812;49.846;9.610;2022-09-14T04:06:10;16.00;99.90
16327;DHT22;34812;49.846;9.610;2022-09-14T04:07:12;15.90;99.90
16327;DHT22;34812;49.846;9.610;2022-09-14T04:08:13;15.90;99.90
16327;DHT22;34812;49.846;9.610;2022-09-14T04:09:15;15.90;99.90
16327;DHT22;34812;49.846;9.610;2022-09-14T04:10:16;16.00;99.90
16327;DHT22;34812;49.846;9.610;2022-09-14T04:11:21;16.00;99.90
16327;DHT22;34812;49.846;9.610;2022-09-14T04:12:22;15.90;99.90
16327;DHT22;34812;49.846;9.610;2022-09-14T04:13:24;15.90;99.90
16327;DHT22;34812;49.846;9.610;2022-09-14T04:14:25;16.00;99.90
16327;DHT22;34812;49.846;9.610;2022-09-14T04:15:26;16.00;99.90
16327;DHT22;34812;49.846;9.610;2022-09-14T04:16:28;16.00;99.90
16327;DHT22;34812;49.846;9.610;2022-09-14T04:17:31;16.00;99.90
16327;DHT22;34812;49.846;9.610;2022-09-14T04:18:32;16.00;99.90
16327;DHT22;34812;49.846;9.610;2022-09-14T04:19:34;16.00;99.90
16327;DHT22;34812;49.846;9.610;2022-09-14T04:20:36;16.00;99.90
16327;DHT22;34812;49.846;9.610;2022-09-14T04:21:38;16.00;99.90
16327;DHT22;34812;49.846;9.610;2022-09-14T04:22:39;16.00;99.90
16327;DHT22;34812;49.846;9.610;2022-09-14T04:23:41;16.00;99.90
16327;DHT22;34812;49.846;9.610;2022-09-14T04:24:42;16.00;99.90
16327;DHT22;34812;49.846;9.610;2022-09-14T04:25:44;16.00;99.90
16327;DHT22;34812;49.846;9.610;2022-09-14T04:26:44;16.00;99.90
16327;DHT22;34812;49.846;9.610;2022-09-14T04:27:46;16.00;99.90
16327;DHT22;34812;49.846;9.610;2022-09-14T04:28:47;16.00;99.90
16327;DHT22;34812;49.846;9.610;2022-09-14T04:29:49;16.00;99.90
16327;DHT22;34812;49.846;9.610;2022-09-14T04:30:54;16.00;99.90
16327;DHT22;34812;49.846;9.610;2022-09-14T04:31:56;16.00;99.90
16327;DHT22;34812;49.846;9.610;2022-09-14T04:32:58;16.00;99.90
16327;DHT22;34812;49.846;9.610;2022-09-14T04:34:00;16.00;99.90
16327;DHT22;34812;49.846;9.610;2022-09-14T04:35:01;16.10;99.90
16327;DHT22;34812;49.846;9.610;2022-09-14T04:36:05;16.00;99.90
16327;DHT22;34812;49.846;9.610;2022-09-14T04:37:06;16.00;99.90
16327;DHT22;34812;49.846;9.610;2022-09-14T04:38:07;16.00;99.90
16327;DHT22;34812;49.846;9.610;2022-09-14T04:39:10;16.00;99.90
16327;DHT22;34812;49.846;9.610;2022-09-14T04:40:13;16.10;99.90
16327;DHT22;34812;49.846;9.610;2022-09-14T04:41:15;16.00;99.90
16327;DHT22;34812;49.846;9.610;2022-09-14T04:42:17;16.00;99.90
16327;DHT22;34812;49.846;9.610;2022-09-14T04:43:19;16.00;99.90
16327;DHT22;34812;49.846;9.610;2022-09-14T04:44:19;16.00;99.90
16327;DHT22;34812;49.846;9.610;2022-09-14T04:45:21;16.00;99.90
16327;DHT22;34812;49.846;9.610;2022-09-14T04:46:24;16.00;99.90
16327;DHT22;34812;49.846;9.610;2022-09-14T04:47:27;16.00;99.90
16327;DHT22;34812;49.846;9.610;2022-09-14T04:48:30;16.00;99.90
16327;DHT22;34812;49.846;9.610;2022-09-14T04:49:34;16.00;99.90
16327;DHT22;34812;49.846;9.610;2022-09-14T04:50:35;16.00;99.90
16327;DHT22;34812;49.846;9.610;2022-09-14T04:51:36;16.00;99.90
16327;DHT22;34812;49.846;9.610;2022-09-14T04:52:37;16.00;99.90
16327;DHT22;34812;49.846;9.610;2022-09-14T04:53:39;16.00;99.90
16327;DHT22;34812;49.846;9.610;2022-09-14T04:54:40;16.00;99.90
16327;DHT22;34812;49.846;9.610;2022-09-14T04:55:41;16.00;99.90
16327;DHT22;34812;49.846;9.610;2022-09-14T04:56:43;16.00;99.90
16327;DHT22;34812;49.846;9.610;2022-09-14T04:57:44;16.00;99.90
16327;DHT22;34812;49.846;9.610;2022-09-14T04:58:46;16.00;99.90
16327;DHT22;34812;49.846;9.610;2022-09-14T04:59:49;16.00;99.90
16327;DHT22;34812;49.846;9.610;2022-09-14T05:00:49;16.00;99.90
16327;DHT22;34812;49.846;9.610;2022-09-14T05:01:51;16.00;99.90
16327;DHT22;34812;49.846;9.610;2022-09-14T05:02:53;16.00;99.90
16327;DHT22;34812;49.846;9.610;2022-09-14T05:03:55;16.00;99.90
16327;DHT22;34812;49.846;9.610;2022-09-14T05:04:56;16.00;99.90
16327;DHT22;34812;49.846;9.610;2022-09-14T05:06:00;16.00;99.90
16327;DHT22;34812;49.846;9.610;2022-09-14T05:07:02;15.90;99.90
16327;DHT22;34812;49.846;9.610;2022-09-14T05:08:04;15.90;99.90
16327;DHT22;34812;49.846;9.610;2022-09-14T05:09:06;15.90;99.90
16327;DHT22;34812;49.846;9.610;2022-09-14T05:10:10;15.90;99.90
16327;DHT22;34812;49.846;9.610;2022-09-14T05:11:12;15.90;99.90
16327;DHT22;34812;49.846;9.610;2022-09-14T05:12:14;15.90;99.90
16327;DHT22;34812;49.846;9.610;2022-09-14T05:13:16;16.00;99.90
16327;DHT22;34812;49.846;9.610;2022-09-14T05:14:16;15.90;99.90
16327;DHT22;34812;49.846;9.610;2022-09-14T05:15:19;15.90;99.90
16327;DHT22;34812;49.846;9.610;2022-09-14T05:16:21;16.00;99.90
16327;DHT22;34812;49.846;9.610;2022-09-14T05:17:23;16.00;99.90
16327;DHT22;34812;49.846;9.610;2022-09-14T05:18:23;16.00;99.90
16327;DHT22;34812;49.846;9.610;2022-09-14T05:19:26;15.90;99.90
16327;DHT22;34812;49.846;9.610;2022-09-14T05:20:28;15.90;99.90
16327;DHT22;34812;49.846;9.610;2022-09-14T05:21:30;16.00;99.90
16327;DHT22;34812;49.846;9.610;2022-09-14T05:22:32;15.90;99.90
16327;DHT22;34812;49.846;9.610;2022-09-14T05:23:33;16.00;99.90
16327;DHT22;34812;49.846;9.610;2022-09-14T05:24:35;16.00;99.90
16327;DHT22;34812;49.846;9.610;2022-09-14T05:25:36;16.00;99.90
16327;DHT22;34812;49.846;9.610;2022-09-14T05:26:38;16.00;99.90
16327;DHT22;34812;49.846;9.610;2022-09-14T05:27:38;16.00;99.90
16327;DHT22;34812;49.846;9.610;2022-09-14T05:28:40;16.00;99.90
16327;DHT22;34812;49.846;9.610;2022-09-14T05:29:41;16.00;99.90
16327;DHT22;34812;49.846;9.610;2022-09-14T05:30:43;16.00;99.90
16327;DHT22;34812;49.846;9.610;2022-09-14T05:31:43;16.00;99.90
16327;DHT22;34812;49.846;9.610;2022-09-14T05:32:46;16.00;99.90
16327;DHT22;34812;49.846;9.610;2022-09-14T05:33:46;16.00;99.90
16327;DHT22;34812;49.846;9.610;2022-09-14T05:34:49;16.00;99.90
16327;DHT22;34812;49.846;9.610;2022-09-14T05:35:50;16.00;99.90
16327;DHT22;34812;49.846;9.610;2022-09-14T05:36:52;16.00;99.90
16327;DHT22;34812;49.846;9.610;2022-09-14T05:37:53;16.00;99.90
16327;DHT22;34812;49.846;9.610;2022-09-14T05:38:54;16.00;99.90
16327;DHT22;34812;49.846;9.610;2022-09-14T05:39:57;16.00;99.90
16327;DHT22;34812;49.846;9.610;2022-09-14T05:40:59;16.00;99.90
16327;DHT22;34812;49.846;9.610;2022-09-14T05:41:59;16.00;99.90
16327;DHT22;34812;49.846;9.610;2022-09-14T05:43:01;16.00;99.90
16327;DHT22;34812;49.846;9.610;2022-09-14T05:44:02;16.00;99.90
16327;DHT22;34812;49.846;9.610;2022-09-14T05:45:05;16.00;99.90
16327;DHT22;34812;49.846;9.610;2022-09-14T05:46:12;16.10;99.90
16327;DHT22;34812;49.846;9.610;2022-09-14T05:47:14;16.10;99.90
16327;DHT22;34812;49.846;9.610;2022-09-14T05:48:14;16.00;99.90
16327;DHT22;34812;49.846;9.610;2022-09-14T05:49:16;16.10;99.90
16327;DHT22;34812;49.846;9.610;2022-09-14T05:50:18;16.10;99.90
16327;DHT22;34812;49.846;9.610;2022-09-14T05:51:21;16.10;99.90
16327;DHT22;34812;49.846;9.610;2022-09-14T05:52:22;16.10;99.90
16327;DHT22;34812;49.846;9.610;2022-09-14T05:53:24;16.10;99.90
16327;DHT22;34812;49.846;9.610;2022-09-14T05:54:25;16.10;99.90
16327;DHT22;34812;49.846;9.610;2022-09-14T05:55:27;16.10;99.90
16327;DHT22;34812;49.846;9.610;2022-09-14T05:56:29;16.10;99.90
16327;DHT22;34812;49.846;9.610;2022-09-14T05:57:32;16.10;99.90
16327;DHT22;34812;49.846;9.610;2022-09-14T05:58:33;16.10;99.90
16327;DHT22;34812;49.846;9.610;2022-09-14T05:59:35;16.10;99.90
16327;DHT22;34812;49.846;9.610;2022-09-14T06:00:36;16.10;99.90
16327;DHT22;34812;49.846;9.610;2022-09-14T06:01:38;16.10;99.90
16327;DHT22;34812;49.846;9.610;2022-09-14T06:02:45;16.10;99.90
16327;DHT22;34812;49.846;9.610;2022-09-14T06:03:46;16.10;99.90
16327;DHT22;34812;49.846;9.610;2022-09-14T06:04:48;16.10;99.90
16327;DHT22;34812;49.846;9.610;2022-09-14T06:05:50;16.10;99.90
16327;DHT22;34812;49.846;9.610;2022-09-14T06:06:54;16.10;99.90
16327;DHT22;34812;49.846;9.610;2022-09-14T06:07:54;16.10;99.90
16327;DHT22;34812;49.846;9.610;2022-09-14T06:08:56;16.10;99.90
16327;DHT22;34812;49.846;9.610;2022-09-14T06:09:58;16.20;99.90
16327;DHT22;34812;49.846;9.610;2022-09-14T06:11:02;16.20;99.90
16327;DHT22;34812;49.846;9.610;2022-09-14T06:12:03;16.20;99.90
16327;DHT22;34812;49.846;9.610;2022-09-14T06:13:05;16.20;99.90
16327;DHT22;34812;49.846;9.610;2022-09-14T06:14:06;16.20;99.90
16327;DHT22;34812;49.846;9.610;2022-09-14T06:15:08;16.20;99.90
16327;DHT22;34812;49.846;9.610;2022-09-14T06:16:12;16.20;99.90
16327;DHT22;34812;49.846;9.610;2022-09-14T06:17:14;16.20;99.90
16327;DHT22;34812;49.846;9.610;2022-09-14T06:18:14;16.20;99.90
16327;DHT22;34812;49.846;9.610;2022-09-14T06:19:16;16.20;99.90
16327;DHT22;34812;49.846;9.610;2022-09-14T06:20:17;16.20;99.90
16327;DHT22;34812;49.846;9.610;2022-09-14T06:21:20;16.20;99.90
16327;DHT22;34812;49.846;9.610;2022-09-14T06:22:21;16.20;99.90
16327;DHT22;34812;49.846;9.610;2022-09-14T06:23:23;16.20;99.90
16327;DHT22;34812;49.846;9.610;2022-09-14T06:24:24;16.20;99.90
16327;DHT22;34812;49.846;9.610;2022-09-14T06:25:26;16.20;99.90
16327;DHT22;34812;49.846;9.610;2022-09-14T06:26:27;16.20;99.90
16327;DHT22;34812;49.846;9.610;2022-09-14T06:27:29;16.30;99.90
16327;DHT22;34812;49.846;9.610;2022-09-14T06:28:30;16.20;99.90
16327;DHT22;34812;49.846;9.610;2022-09-14T06:29:32;16.20;99.90
16327;DHT22;34812;49.846;9.610;2022-09-14T06:30:33;16.20;99.90
16327;DHT22;34812;49.846;9.610;2022-09-14T06:31:34;16.20;99.90
16327;DHT22;34812;49.846;9.610;2022-09-14T06:32:35;16.20;99.90
16327;DHT22;34812;49.846;9.610;2022-09-14T06:33:37;16.30;99.90
16327;DHT22;34812;49.846;9.610;2022-09-14T06:34:38;16.30;99.90
16327;DHT22;34812;49.846;9.610;2022-09-14T06:35:40;16.30;99.90
16327;DHT22;34812;49.846;9.610;2022-09-14T06:36:42;16.30;99.90
16327;DHT22;34812;49.846;9.610;2022-09-14T06:37:45;16.30;99.90
16327;DHT22;34812;49.846;9.610;2022-09-14T06:38:46;16.30;99.90